首页
METAR-TAF:

METAR-TAF

机场 :

Leesburg, 佛罗里达州, 美国

纬度: 28-49-21N, 经度: 081-48-32W, 海拔: 24米

当前天气观测

该预报发布于24分钟前的15:53 UTC
风速9节,风向东北,在东转东北之间变化
温度 31°C
湿度 43%
气压 1019 hPa
能見度: 16.1公里
少量云层高于4500英尺

METAR: KLEE 231553Z 05009KT 010V070 10SM FEW045 31/17 A3008 RMK AO2 SLP185 T03060172

时间: 12:17 (16:17 UTC)

预报

该预报发布于4小时和43分钟前的11:34 UTC
预报有效从23日的 12点(UTC)到 24日的 12点(UTC)
风速5节,风向北转东北
能見度: 10公里
少量云层高于4500英尺
从 23日的 1500点(UTC)
风速9节,风向东北
能見度: 10公里
少量云层高于4000英尺
从 24日的 0100点(UTC)
风速4节,风向北转东北
能見度: 10公里
天空无云

TAF: KLEE 231134Z 2312/2412 02005KT P6SM FEW045 FM231500 05009KT P6SM FEW040 FM240100 03004KT P6SM SKC

超过4000个机场的气象观测和天气预报(METAR&TAF报告)。

可查询的气象台以黄色和红色小点在地图上表示。

将鼠标移到小点上方,可查看气象台名称。

然后点击查看天气观测和预报。

如需切换地图:点击带黑十字的绿色按钮放大地图;点击带横线的绿色按钮缩小地图;或者点击绿色箭头查看邻近地区的地图。


METAR-TAF: